createdAt,value
2022-09-07T19:36:36.275Z,53.90
2022-09-07T19:39:08.568Z,41.60
2022-09-07T19:41:45.279Z,27.80
2022-09-07T19:44:17.260Z,24.10
2022-09-07T19:46:49.328Z,24.30
2022-09-07T19:49:21.373Z,22.80
2022-09-07T19:51:53.470Z,19.20
2022-09-07T19:54:25.679Z,20.10
2022-09-07T19:56:57.645Z,23.70
2022-09-07T19:59:29.699Z,27.80
2022-09-07T20:02:01.967Z,45.00
2022-09-07T20:04:35.069Z,35.60
2022-09-07T20:07:07.589Z,26.30
2022-09-07T20:09:39.950Z,25.50
2022-09-07T20:12:12.110Z,21.10
2022-09-07T20:14:44.111Z,59.80
2022-09-07T20:17:16.566Z,62.60
2022-09-07T20:19:50.705Z,43.30
2022-09-07T20:22:22.945Z,27.80
2022-09-07T20:24:57.870Z,17.20
2022-09-07T20:27:44.229Z,12.40
2022-09-07T20:30:17.969Z,10.30
2022-09-07T20:32:49.991Z,15.20
2022-09-07T20:35:35.081Z,34.90
2022-09-07T20:40:50.983Z,32.10
2022-09-07T20:43:32.030Z,26.10
2022-09-07T20:46:05.043Z,19.00
2022-09-07T20:48:38.417Z,12.60
2022-09-07T20:51:16.007Z,11.60
2022-09-07T20:53:50.446Z,11.50
2022-09-07T20:56:25.633Z,11.60
2022-09-07T20:59:01.169Z,9.80
2022-09-07T21:01:35.314Z,14.80
2022-09-07T21:04:10.190Z,18.30
2022-09-07T21:06:42.278Z,11.90
2022-09-07T21:09:17.848Z,15.70
2022-09-07T21:11:52.091Z,13.20
2022-09-07T21:14:34.615Z,16.20
2022-09-07T21:17:06.866Z,20.80
2022-09-07T21:19:41.113Z,21.10
2022-09-07T21:22:21.908Z,33.80
2022-09-07T21:24:57.552Z,24.80
2022-09-07T21:27:38.123Z,12.80
2022-09-07T21:30:12.146Z,10.00
2022-09-07T21:32:44.183Z,12.00
2022-09-07T21:35:16.145Z,13.30
2022-09-07T21:37:48.685Z,16.30
2022-09-07T21:40:20.845Z,14.90
2022-09-07T21:42:53.614Z,12.60
2022-09-07T21:45:25.662Z,20.90
2022-09-07T21:47:57.753Z,13.90
2022-09-07T21:50:30.731Z,12.70
2022-09-07T21:55:42.657Z,16.50
2022-09-07T21:58:18.700Z,14.90
2022-09-07T22:00:51.033Z,13.10
2022-09-07T22:03:28.542Z,18.00
2022-09-07T22:06:04.165Z,13.10
2022-09-07T22:08:43.732Z,14.50
2022-09-07T22:14:05.818Z,11.80
2022-09-07T22:16:39.117Z,13.30
2022-09-07T22:19:12.870Z,9.90
2022-09-07T22:21:50.143Z,9.10
2022-09-07T22:24:24.695Z,8.20
2022-09-07T22:26:56.891Z,11.20
2022-09-07T22:29:29.471Z,9.60
2022-09-07T22:32:01.601Z,8.30
2022-09-07T22:34:36.257Z,10.90
2022-09-07T22:37:15.591Z,9.80
2022-09-07T22:39:49.689Z,11.90
2022-09-07T22:42:21.633Z,15.90
2022-09-07T22:44:55.838Z,10.80
2022-09-07T22:47:30.393Z,9.40
2022-09-07T22:50:02.347Z,9.80
2022-09-07T22:52:35.608Z,8.00
2022-09-07T22:55:10.890Z,7.70
2022-09-07T22:57:43.285Z,8.80
2022-09-07T23:00:17.284Z,8.80
2022-09-07T23:02:49.800Z,8.40
2022-09-07T23:05:21.719Z,6.20
2022-09-07T23:07:53.958Z,7.40
2022-09-07T23:10:25.969Z,9.20
2022-09-07T23:12:58.025Z,11.20
2022-09-07T23:15:30.254Z,8.50
2022-09-07T23:18:04.853Z,7.40
2022-09-07T23:20:39.859Z,7.30
2022-09-07T23:23:13.533Z,8.70
2022-09-07T23:25:46.814Z,10.90
2022-09-07T23:28:18.867Z,8.70
2022-09-07T23:30:54.741Z,7.10
2022-09-07T23:33:28.510Z,10.50
2022-09-07T23:36:02.418Z,5.80
2022-09-07T23:38:35.342Z,7.40
2022-09-07T23:41:07.698Z,8.60
2022-09-07T23:43:39.648Z,8.90
2022-09-07T23:46:12.630Z,9.30
2022-09-07T23:48:47.446Z,9.60
2022-09-07T23:51:23.926Z,8.30
2022-09-07T23:53:56.592Z,7.90
2022-09-07T23:56:28.851Z,11.40
2022-09-07T23:59:03.073Z,15.10
